Time;durP1;ratioP1;P1;durP2;ratioP2;P2;SDS_P1;SDS_P2;PMS_P1;PMS_P2;Temp;Humidity;BMP_temperature;BMP_pressure;BME280_temperature;BME280_humidity;BME280_pressure;Samples;Min_cycle;Max_cycle;Signal;HPM_P1;HPM_P2
2022/01/28 00:04:51;;;;;;;29.70;13.40;;;;;;;-5.56;67.97;99338.16;25125;1307;3029432;-56
2022/01/28 00:07:26;;;;;;;24.20;12.10;;;;;;;-5.57;69.03;99330.66;25155;1308;3052904;-58
2022/01/28 00:09:55;;;;;;;27.50;12.30;;;;;;;-5.44;68.75;99326.76;25184;1307;3026298;-56
2022/01/28 00:12:26;;;;;;;25.30;12.30;;;;;;;-5.42;68.55;99329.33;25173;1307;3070361;-56
2022/01/28 00:15:06;;;;;;;25.20;12.20;;;;;;;-5.38;69.08;99325.91;25184;1307;3027444;-58
2022/01/28 00:39:25;;;;;;;25.60;12.90;;;;;;;-5.16;70.98;99295.03;25160;1308;3053660;-55
2022/01/28 00:41:53;;;;;;;25.40;11.50;;;;;;;-4.51;69.56;99291.02;25156;1308;3026705;-56
2022/01/28 00:44:23;;;;;;;21.90;10.70;;;;;;;-4.29;68.23;99290.29;25178;1307;3047780;-56
2022/01/28 00:46:52;;;;;;;29.80;13.60;;;;;;;-4.32;68.32;99277.30;25119;1307;3026505;-58
2022/01/28 00:49:21;;;;;;;24.00;12.30;;;;;;;-4.47;68.74;99274.27;25131;1308;3067095;-56
2022/01/28 00:51:50;;;;;;;26.50;12.20;;;;;;;-4.72;69.35;99281.16;25138;1307;3026688;-57
2022/01/28 00:54:19;;;;;;;23.10;12.20;;;;;;;-4.82;69.93;99278.27;25184;1308;3050304;-59
2022/01/28 00:56:48;;;;;;;24.70;12.30;;;;;;;-4.93;70.43;99283.92;25106;1308;3026506;-56
2022/01/28 00:59:17;;;;;;;26.30;13.70;;;;;;;-5.03;71.26;99271.98;25154;1307;3054757;-57
2022/01/28 01:01:46;;;;;;;30.20;13.90;;;;;;;-5.02;71.60;99275.21;25135;1309;3029134;-58
2022/01/28 01:04:19;;;;;;;24.90;12.30;;;;;;;-5.21;72.17;99274.37;25133;1307;3050413;-58
2022/01/28 01:06:48;;;;;;;27.60;14.30;;;;;;;-5.19;72.66;99263.44;25123;1307;3026224;-58
2022/01/28 01:09:17;;;;;;;36.20;16.90;;;;;;;-5.28;73.32;99261.56;25145;1307;3060239;-57
2022/01/28 01:11:46;;;;;;;25.40;13.50;;;;;;;-5.23;73.92;99254.55;25086;1307;3026751;-55
2022/01/28 01:14:15;;;;;;;23.00;11.50;;;;;;;-5.10;73.66;99251.65;25135;1307;3054394;-58
2022/01/28 01:17:05;;;;;;;27.70;13.70;;;;;;;-5.23;74.00;99259.00;25119;1307;3026440;-54
2022/01/28 01:19:39;;;;;;;27.30;12.70;;;;;;;-5.14;74.85;99255.23;25131;1307;3054237;-57
2022/01/28 01:22:09;;;;;;;24.10;12.20;;;;;;;-4.64;73.44;99246.79;25111;1307;3051737;-58
2022/01/28 01:24:48;;;;;;;24.30;12.50;;;;;;;-4.33;72.50;99246.70;25162;1307;3026273;-57
2022/01/28 01:27:19;;;;;;;24.90;12.20;;;;;;;-4.16;71.79;99244.41;25098;1310;3052374;-58
2022/01/28 01:29:48;;;;;;;26.80;13.60;;;;;;;-4.39;72.48;99236.29;25137;1307;3026493;-58
2022/01/28 01:32:18;;;;;;;29.20;13.90;;;;;;;-4.60;72.90;99237.04;25168;1307;3030019;-56
2022/01/28 01:34:47;;;;;;;29.50;14.00;;;;;;;-4.68;74.10;99229.88;25150;1308;3048851;-56
2022/01/28 01:37:16;;;;;;;27.90;14.00;;;;;;;-4.85;74.32;99235.72;25121;1307;3026582;-58
2022/01/28 01:39:46;;;;;;;32.70;15.00;;;;;;;-4.86;74.73;99235.39;25103;1307;3058680;-56
2022/01/28 01:43:21;;;;;;;29.60;12.80;;;;;;;-4.74;73.95;99232.11;25162;1308;3026755;-53
2022/01/28 01:53:33;;;;;;;28.40;13.50;;;;;;;-4.72;74.66;99235.54;25148;1308;3052957;-57
2022/01/28 01:56:02;;;;;;;36.00;15.60;;;;;;;-4.67;73.99;99228.86;25122;1310;3026357;-56
2022/01/28 01:58:32;;;;;;;30.30;14.20;;;;;;;-4.65;74.01;99232.44;25128;1308;3051560;-59
2022/01/28 02:01:01;;;;;;;24.90;13.00;;;;;;;-4.15;73.58;99238.92;25166;1307;3029171;-55
2022/01/28 02:03:30;;;;;;;31.30;14.90;;;;;;;-3.98;72.33;99228.23;25133;1310;3026415;-57
2022/01/28 02:06:00;;;;;;;25.60;13.30;;;;;;;-3.93;71.76;99229.06;25167;1307;3048920;-58
2022/01/28 02:08:32;;;;;;;30.60;13.90;;;;;;;-4.08;72.14;99233.59;25133;1308;3026764;-56
2022/01/28 02:11:01;;;;;;;26.40;13.70;;;;;;;-4.14;72.30;99232.59;25235;1308;3028387;-57
2022/01/28 02:13:49;;;;;;;28.40;14.60;;;;;;;-4.45;73.81;99227.77;25164;1308;3070088;-64
2022/01/28 02:16:18;;;;;;;35.90;15.00;;;;;;;-4.47;73.77;99221.27;25103;1308;3026565;-57
2022/01/28 02:18:48;;;;;;;34.30;15.20;;;;;;;-4.60;74.38;99229.17;25150;1307;3027462;-58
2022/01/28 02:21:18;;;;;;;30.90;14.90;;;;;;;-4.75;74.91;99231.09;25201;1307;3026036;-59
2022/01/28 02:23:52;;;;;;;34.80;16.80;;;;;;;-4.84;75.40;99229.08;25161;1310;3049033;-58
2022/01/28 02:26:21;;;;;;;31.70;14.70;;;;;;;-4.76;75.24;99214.52;25170;1310;3055378;-55
2022/01/28 02:28:55;;;;;;;34.20;16.00;;;;;;;-4.92;75.49;99227.04;25157;1310;3027427;-57
2022/01/28 02:31:27;;;;;;;25.90;12.90;;;;;;;-4.89;75.83;99217.45;25117;1310;3055178;-53
2022/01/28 02:33:57;;;;;;;27.90;13.50;;;;;;;-4.17;73.44;99213.77;25109;1307;3031730;-62
2022/01/28 02:36:27;;;;;;;34.20;14.00;;;;;;;-3.88;72.24;99212.08;25169;1310;3028977;-55
2022/01/28 02:38:58;;;;;;;30.60;14.40;;;;;;;-4.02;71.29;99206.69;25088;1308;3026293;-54
2022/01/28 02:41:32;;;;;;;33.40;16.10;;;;;;;-4.00;71.73;99204.81;25120;1307;3028194;-58
2022/01/28 02:46:37;;;;;;;34.30;15.50;;;;;;;-4.24;72.41;99200.48;25170;1310;3027137;-59
2022/01/28 02:49:09;;;;;;;32.10;16.40;;;;;;;-4.47;73.47;99194.25;25132;1310;3026694;-57
2022/01/28 02:51:38;;;;;;;36.90;17.50;;;;;;;-4.63;74.35;99195.68;25141;1310;3027372;-56
2022/01/28 02:54:17;;;;;;;35.80;18.10;;;;;;;-4.63;74.30;99187.13;25175;1310;3028910;-57
2022/01/28 02:56:52;;;;;;;40.50;18.00;;;;;;;-4.69;75.17;99178.95;25095;1308;3055329;-57
2022/01/28 02:59:21;;;;;;;30.30;15.60;;;;;;;-4.60;74.94;99171.91;25166;1308;3057618;-57
2022/01/28 03:01:51;;;;;;;40.70;15.80;;;;;;;-4.61;74.41;99174.13;25101;1308;3026921;-59
2022/01/28 03:04:49;;;;;;;34.80;16.50;;;;;;;-4.66;75.06;99169.04;25102;1308;3026498;-59
2022/01/28 03:07:09;;;;;;;32.50;16.00;;;;;;;-4.79;75.28;99174.55;25163;1308;3058763;-56
2022/01/28 03:10:13;;;;;;;29.20;13.00;;;;;;;-4.80;75.91;99177.27;25095;1307;3029395;-57
2022/01/28 03:15:30;;;;;;;29.60;14.50;;;;;;;-3.45;71.75;99175.13;25180;1307;3055817;-55
2022/01/28 03:18:12;;;;;;;33.00;15.60;;;;;;;-3.43;70.72;99173.92;25119;1307;3028764;-56
2022/01/28 03:20:55;;;;;;;31.40;14.20;;;;;;;-3.61;70.91;99176.80;25110;1308;3052429;-56
2022/01/28 03:23:27;;;;;;;29.50;13.90;;;;;;;-3.79;71.35;99174.89;25049;1310;3052958;-57
2022/01/28 03:25:56;;;;;;;29.80;15.50;;;;;;;-3.73;71.37;99165.77;25091;1311;3026495;-57
2022/01/28 03:28:26;;;;;;;34.40;15.50;;;;;;;-3.88;71.64;99169.65;25111;1308;3026690;-56
2022/01/28 03:30:54;;;;;;;35.30;15.60;;;;;;;-3.88;71.94;99169.81;25162;1308;3026030;-55
2022/01/28 03:33:23;;;;;;;35.20;16.40;;;;;;;-3.83;71.51;99169.10;25098;1310;3070461;-55
2022/01/28 03:35:52;;;;;;;33.00;14.90;;;;;;;-3.67;70.96;99170.86;25130;1308;3028763;-55
2022/01/28 03:38:21;;;;;;;34.70;16.10;;;;;;;-3.93;72.01;99179.44;25141;1308;3049597;-54
2022/01/28 03:40:54;;;;;;;35.60;15.30;;;;;;;-3.89;71.89;99173.25;25201;1308;3026495;-58
2022/01/28 03:43:23;;;;;;;33.00;16.20;;;;;;;-3.81;71.58;99173.36;25174;1310;3027880;-59
2022/01/28 03:45:52;;;;;;;30.70;15.20;;;;;;;-4.03;72.14;99175.90;25102;1311;3026664;-56
2022/01/28 03:48:21;;;;;;;34.50;15.70;;;;;;;-4.14;72.82;99168.10;25183;1308;3026386;-57
2022/01/28 03:50:51;;;;;;;26.60;13.10;;;;;;;-4.09;72.57;99162.77;25100;1311;3047766;-57
2022/01/28 03:56:11;;;;;;;33.10;13.10;;;;;;;-4.02;72.32;99163.73;31427;1322;3026494;-59
2022/01/28 03:58:40;;;;;;;41.10;22.20;;;;;;;-3.80;71.32;99153.68;24829;1325;3026765;-55
2022/01/28 04:01:26;;;;;;;26.30;12.90;;;;;;;-3.48;70.83;99153.93;24880;1323;3027143;-56
2022/01/28 04:12:13;;;;;;;26.40;13.10;;;;;;;-2.36;66.73;99149.46;25044;1318;3055467;-55
2022/01/28 04:14:59;;;;;;;28.10;12.90;;;;;;;-2.63;66.93;99146.38;24978;1318;3029795;-57
2022/01/28 04:17:28;;;;;;;27.20;12.90;;;;;;;-3.04;67.83;99145.29;24972;1319;3056156;-58
2022/01/28 04:19:57;;;;;;;24.90;13.20;;;;;;;-3.37;69.38;99146.14;24966;1321;3026964;-57
2022/01/28 04:22:26;;;;;;;35.00;15.40;;;;;;;-3.63;70.10;99153.55;24971;1318;3051487;-55
2022/01/28 04:24:55;;;;;;;29.00;14.20;;;;;;;-3.63;70.97;99157.65;24925;1321;3026358;-57
2022/01/28 04:27:24;;;;;;;26.80;13.20;;;;;;;-3.50;70.32;99145.21;25031;1318;3058938;-59
2022/01/28 04:29:53;;;;;;;24.90;12.50;;;;;;;-3.52;70.29;99138.21;25021;1318;3026014;-56
2022/01/28 04:32:24;;;;;;;30.30;14.40;;;;;;;-3.59;70.70;99141.17;25039;1318;3051066;-57
2022/01/28 04:34:54;;;;;;;26.00;13.70;;;;;;;-3.76;71.52;99149.02;25034;1318;3026744;-56
2022/01/28 05:04:21;;;;;;;31.10;13.00;;;;;;;-3.51;72.05;99129.65;25181;1315;3048428;-55
2022/01/28 05:06:42;;;;;;;29.70;13.30;;;;;;;-3.54;72.82;99135.31;25086;1315;3054627;-57
2022/01/28 05:23:07;;;;;;;27.60;13.60;;;;;;;-3.70;72.91;99128.95;25156;1316;3050906;-55
2022/01/28 05:28:23;;;;;;;29.80;14.30;;;;;;;-3.73;72.95;99114.59;24872;1321;3028627;-55
2022/01/28 05:30:52;;;;;;;29.50;14.20;;;;;;;-3.71;72.59;99107.73;24982;1315;3052240;-56
2022/01/28 05:33:21;;;;;;;27.10;13.20;;;;;;;-3.75;72.80;99124.88;25127;1315;3026462;-58
2022/01/28 05:35:50;;;;;;;28.60;12.90;;;;;;;-3.72;72.88;99116.47;25018;1315;3055546;-57
2022/01/28 05:38:19;;;;;;;28.20;13.60;;;;;;;-3.78;73.09;99113.79;25068;1315;3025996;-57
2022/01/28 05:40:47;;;;;;;29.10;13.40;;;;;;;-3.64;72.52;99106.48;25060;1315;3052783;-57
2022/01/28 05:43:17;;;;;;;31.50;14.70;;;;;;;-3.60;72.70;99102.84;25058;1318;3026643;-57
2022/01/28 05:45:46;;;;;;;28.40;12.20;;;;;;;-3.70;72.75;99130.48;25026;1318;3054679;-57
2022/01/28 05:48:16;;;;;;;28.70;14.00;;;;;;;-3.69;72.63;99137.49;25095;1315;3029279;-58
2022/01/28 05:50:45;;;;;;;23.40;10.80;;;;;;;-3.88;73.30;99140.38;25109;1315;3050535;-56
2022/01/28 05:53:14;;;;;;;29.20;13.60;;;;;;;-3.85;73.82;99140.36;25061;1315;3026302;-58
2022/01/28 05:55:43;;;;;;;27.10;13.30;;;;;;;-3.82;73.91;99129.73;25058;1315;3068524;-58
2022/01/28 05:58:12;;;;;;;32.80;14.40;;;;;;;-3.19;72.60;99136.88;25070;1315;3026512;-57
2022/01/28 06:00:41;;;;;;;28.40;14.00;;;;;;;-2.91;71.31;99129.89;25045;1318;3026894;-57
2022/01/28 06:03:10;;;;;;;30.50;14.00;;;;;;;-2.68;70.37;99120.36;25054;1318;3069408;-57
2022/01/28 06:05:39;;;;;;;26.10;14.20;;;;;;;-2.84;70.71;99121.59;25044;1318;3028812;-59
2022/01/28 06:08:09;;;;;;;27.80;14.40;;;;;;;-3.14;71.81;99115.92;25056;1318;3052283;-59
2022/01/28 06:10:37;;;;;;;27.00;13.60;;;;;;;-3.20;72.72;99115.99;25054;1318;3026347;-57
2022/01/28 06:13:07;;;;;;;32.80;13.80;;;;;;;-3.30;73.31;99116.76;25033;1318;3055547;-60
2022/01/28 06:15:41;;;;;;;29.70;14.30;;;;;;;-3.32;73.56;99110.80;25094;1318;3027578;-57
2022/01/28 06:18:11;;;;;;;33.70;17.20;;;;;;;-3.47;74.06;99109.39;25124;1315;3069332;-58
2022/01/28 06:20:40;;;;;;;27.50;14.10;;;;;;;-3.46;74.37;99109.91;25139;1315;3026646;-59
2022/01/28 06:23:10;;;;;;;32.60;15.30;;;;;;;-3.37;74.09;99106.22;25021;1316;3026324;-57
2022/01/28 06:25:39;;;;;;;25.30;13.40;;;;;;;-3.59;74.69;99108.30;25048;1315;3069028;-59
2022/01/28 06:28:08;;;;;;;31.10;15.00;;;;;;;-3.68;75.22;99101.02;25021;1315;3026789;-59
2022/01/28 06:30:37;;;;;;;36.30;16.60;;;;;;;-3.67;75.53;99096.23;25087;1315;3052552;-60
2022/01/28 06:33:06;;;;;;;29.40;14.20;;;;;;;-3.68;75.64;99089.90;25027;1315;3026532;-60
2022/01/28 06:35:35;;;;;;;27.70;13.10;;;;;;;-3.16;74.63;99093.32;25214;1315;3055345;-58
2022/01/28 06:38:04;;;;;;;26.80;13.40;;;;;;;-2.70;72.48;99090.90;25353;1315;3027546;-56
2022/01/28 06:40:33;;;;;;;30.00;13.80;;;;;;;-2.67;71.98;99088.82;25024;1316;3049652;-60
2022/01/28 06:43:02;;;;;;;29.70;14.20;;;;;;;-2.77;72.34;99095.27;25032;1315;3028301;-58
2022/01/28 06:45:40;;;;;;;28.00;14.60;;;;;;;-2.92;72.85;99101.13;25082;1315;3055993;-58
2022/01/28 06:48:10;;;;;;;35.80;15.70;;;;;;;-2.96;73.03;99100.65;25087;1315;3027701;-55
2022/01/28 06:50:42;;;;;;;26.50;14.00;;;;;;;-3.01;73.32;99095.05;25076;1315;3026904;-60
2022/01/28 06:53:12;;;;;;;25.00;13.10;;;;;;;-3.13;74.11;99085.41;25100;1315;3026633;-59
2022/01/28 07:06:30;;;;;;;29.60;14.90;;;;;;;-3.17;74.60;99086.48;12251;1315;3135819;-64
2022/01/28 07:09:12;;;;;;;31.40;14.30;;;;;;;-3.22;75.15;99094.77;5159;1322;3096394;-61
2022/01/28 07:11:58;;;;;;;24.70;11.70;;;;;;;-3.18;75.48;99092.15;4852;1323;3110494;-63
2022/01/28 07:14:41;;;;;;;31.90;13.20;;;;;;;-2.34;73.56;99080.12;4604;1322;3084539;-62
2022/01/28 07:17:32;;;;;;;24.60;12.40;;;;;;;-2.21;72.39;99084.58;5075;1322;3085499;-62
2022/01/28 07:20:20;;;;;;;24.10;13.00;;;;;;;-2.21;72.52;99080.98;4803;1319;3126527;-64
2022/01/28 07:26:21;;;;;;;23.30;13.00;;;;;;;-2.68;74.48;99077.85;4586;1321;3109577;-62
2022/01/28 07:29:49;;;;;;;28.50;12.90;;;;;;;-2.76;74.90;99077.95;4381;1323;3125433;-63
2022/01/28 07:32:36;;;;;;;26.70;13.50;;;;;;;-2.90;75.70;99076.92;4310;1322;3096069;-64
2022/01/28 08:01:47;;;;;;;21.60;11.90;;;;;;;-2.37;75.22;99047.92;4117;1323;3078483;-61
2022/01/28 08:23:24;;;;;;;26.00;14.70;;;;;;;-1.71;74.68;99042.39;3518;1323;3133770;-62
2022/01/28 08:26:25;;;;;;;27.70;15.60;;;;;;;-1.78;75.76;99033.08;3688;1326;3103361;-63
2022/01/28 08:29:35;;;;;;;22.00;12.20;;;;;;;-1.77;75.55;99035.63;3618;1323;3111287;-64
2022/01/28 08:32:33;;;;;;;24.10;13.20;;;;;;;-1.99;75.74;99034.64;3655;1323;3107436;-62
2022/01/28 08:35:29;;;;;;;24.10;13.20;;;;;;;-1.86;75.50;99029.27;4451;1319;3149623;-61
2022/01/28 08:44:01;;;;;;;24.50;14.40;;;;;;;-0.57;71.14;99007.14;6332;1318;3174032;-61
2022/01/28 08:59:45;;;;;;;24.40;12.40;;;;;;;-1.72;75.56;99001.39;4485;1315;3116746;-62
2022/01/28 09:05:55;;;;;;;23.80;15.10;;;;;;;-1.40;75.71;98989.79;4317;1321;3137625;-64
2022/01/28 09:10:29;;;;;;;21.00;12.30;;;;;;;-1.08;74.47;98980.73;3637;1322;3129561;-61
2022/01/28 09:14:20;;;;;;;24.60;12.50;;;;;;;-0.76;73.67;98967.65;3591;1323;3093412;-63
2022/01/28 09:17:31;;;;;;;24.10;13.20;;;;;;;-0.97;74.06;98960.02;4478;1321;3103483;-63
2022/01/28 09:20:32;;;;;;;23.80;13.10;;;;;;;-1.18;75.06;98953.77;4140;1322;3072516;-60
2022/01/28 09:23:14;;;;;;;22.90;13.10;;;;;;;-1.17;75.13;98956.50;5060;1324;3067996;-64
2022/01/28 09:40:34;;;;;;;22.80;12.30;;;;;;;-0.51;73.59;98941.61;3721;1322;3130214;-62
2022/01/28 09:44:13;;;;;;;21.50;11.30;;;;;;;-0.05;71.65;98941.35;4054;1323;3127841;-63
2022/01/28 09:47:23;;;;;;;25.90;11.60;;;;;;;-0.40;72.57;98935.85;4920;1323;3114802;-63
2022/01/28 09:50:23;;;;;;;22.00;11.50;;;;;;;-0.59;73.85;98920.14;3815;1322;3104363;-61
2022/01/28 09:56:37;;;;;;;21.10;12.30;;;;;;;-0.75;74.53;98914.81;4868;1320;3101814;-63
2022/01/28 10:00:17;;;;;;;25.30;13.10;;;;;;;-0.74;75.17;98915.50;6889;1317;3111342;-63
2022/01/28 10:03:40;;;;;;;26.30;14.10;;;;;;;-0.63;75.02;98915.77;5413;1319;3114824;-59
2022/01/28 10:06:36;;;;;;;28.10;14.70;;;;;;;-0.64;75.15;98915.92;4637;1322;3094327;-62
2022/01/28 10:09:23;;;;;;;28.10;14.30;;;;;;;-0.68;75.70;98915.53;6536;1320;3069462;-63
2022/01/28 10:12:43;;;;;;;24.80;12.50;;;;;;;-0.88;76.75;98906.88;6498;1317;3105784;-62
2022/01/28 10:16:08;;;;;;;24.70;13.40;;;;;;;-0.06;75.50;98900.90;6262;1320;3099908;-64
2022/01/28 10:23:12;;;;;;;29.10;18.30;;;;;;;0.67;72.72;98887.16;6234;1312;3106174;-62
2022/01/28 10:26:56;;;;;;;29.10;18.30;;;;;;;0.42;72.88;98883.91;3523;1321;3102314;-62
2022/01/28 10:30:48;;;;;;;30.60;19.60;;;;;;;0.77;72.23;98876.18;8908;1315;3112173;-66
2022/01/28 10:34:10;;;;;;;24.80;14.30;;;;;;;0.58;72.53;98871.91;6247;1318;3104128;-63
2022/01/28 10:37:34;;;;;;;22.80;13.30;;;;;;;0.26;74.25;98867.33;3782;1315;3121000;-60
2022/01/28 10:44:18;;;;;;;27.60;16.00;;;;;;;0.82;73.22;98845.15;4067;1317;3108359;-66
2022/01/28 10:47:06;;;;;;;26.00;13.40;;;;;;;1.36;70.68;98841.56;3995;1314;3124061;-63
2022/01/28 10:49:43;;;;;;;26.00;13.40;;;;;;;1.33;70.99;98834.42;3992;1313;3122938;-64
2022/01/28 10:52:41;;;;;;;26.00;13.40;;;;;;;1.55;70.42;98818.68;3567;1317;3160097;-64
2022/01/28 10:55:23;;;;;;;26.00;13.40;;;;;;;1.96;69.10;98818.63;4115;1321;3140343;-65
2022/01/28 10:58:20;;;;;;;26.00;13.40;;;;;;;2.18;68.25;98811.95;3248;1315;3128907;-64
2022/01/28 11:00:59;;;;;;;26.00;13.40;;;;;;;2.07;68.37;98798.34;3863;1320;3167368;-62
2022/01/28 11:04:03;;;;;;;26.00;13.40;;;;;;;2.43;67.61;98795.15;3983;1316;3133323;-65
2022/01/28 11:06:44;;;;;;;26.70;16.60;;;;;;;2.95;65.73;98795.70;4534;1318;3093817;-63
2022/01/28 11:09:44;;;;;;;26.70;16.60;;;;;;;2.10;67.17;98791.31;3435;1318;3155519;-62
2022/01/28 11:12:36;;;;;;;26.70;16.60;;;;;;;1.86;68.40;98788.93;3469;1319;3137715;-61
2022/01/28 11:15:15;;;;;;;26.70;16.60;;;;;;;2.02;67.97;98785.75;3207;1315;3115428;-61
2022/01/28 11:17:47;;;;;;;26.70;16.60;;;;;;;2.15;67.52;98779.92;2753;1318;3141208;-61
2022/01/28 11:20:48;;;;;;;26.70;16.60;;;;;;;2.17;67.32;98773.11;3074;1318;3123421;-62
2022/01/28 11:23:37;;;;;;;26.70;16.60;;;;;;;2.03;67.72;98773.10;3231;1320;3154528;-64
2022/01/28 11:26:34;;;;;;;26.70;16.60;;;;;;;2.13;67.85;98764.28;2926;1319;3143747;-63
2022/01/28 11:29:58;;;;;;;26.70;16.60;;;;;;;2.67;66.17;98756.52;2792;1319;3103991;-62
2022/01/28 11:33:07;;;;;;;30.00;19.10;;;;;;;2.71;65.37;98754.10;4406;1315;3112405;-61
2022/01/28 11:35:56;;;;;;;29.10;15.60;;;;;;;1.96;67.51;98749.52;4842;1318;3137670;-61
2022/01/28 11:38:31;;;;;;;33.20;15.70;;;;;;;1.21;70.76;98756.30;4807;1318;3118008;-63
2022/01/28 11:41:07;;;;;;;33.20;15.70;;;;;;;0.77;72.67;98756.52;2584;1317;3134240;-63
2022/01/28 11:43:55;;;;;;;44.80;26.90;;;;;;;0.65;73.84;98756.21;2877;1319;3142264;-65
2022/01/28 11:46:36;;;;;;;38.40;18.90;;;;;;;0.59;74.07;98750.20;3072;1315;3147008;-61
2022/01/28 11:49:24;;;;;;;35.70;17.70;;;;;;;0.76;74.21;98745.68;3339;1318;3102955;-64
2022/01/28 11:51:59;;;;;;;35.70;17.70;;;;;;;1.17;73.44;98747.30;3457;1320;3133893;-65
2022/01/28 11:54:49;;;;;;;46.80;27.40;;;;;;;1.41;72.41;98742.34;3311;1318;3114387;-62
2022/01/28 11:57:32;;;;;;;48.30;23.90;;;;;;;1.25;72.49;98736.34;2937;1316;3128336;-63
2022/01/28 12:00:26;;;;;;;48.30;23.90;;;;;;;1.11;73.43;98736.44;2849;1316;3130259;-63
2022/01/28 12:03:33;;;;;;;57.70;32.80;;;;;;;1.23;73.52;98731.41;3602;1318;3102288;-61
2022/01/28 12:06:12;;;;;;;56.10;26.40;;;;;;;1.36;72.55;98726.65;3703;1320;3113388;-60
2022/01/28 12:08:47;;;;;;;56.10;26.40;;;;;;;0.61;75.11;98733.96;3279;1318;3143443;-61
2022/01/28 12:11:51;;;;;;;54.60;26.80;;;;;;;0.88;75.11;98728.77;3835;1317;3133833;-63
2022/01/28 12:15:09;;;;;;;55.90;22.90;;;;;;;1.16;74.19;98732.86;3423;1318;3110081;-64
2022/01/28 12:24:33;;;;;;;;;;;;;;;;;;;;;
2022/01/28 12:28:16;;;;;;;58.90;27.10;;;;;;;1.19;73.94;98724.11;3083;1317;3151638;-62
2022/01/28 12:31:35;;;;;;;45.80;21.30;;;;;;;0.61;75.92;98728.78;3326;1315;3141533;-61
2022/01/28 12:34:23;;;;;;;44.00;19.80;;;;;;;0.31;78.13;98727.11;4204;1316;3086535;-63
2022/01/28 12:37:22;;;;;;;41.60;18.70;;;;;;;1.11;75.73;98721.46;3488;1318;3092577;-61
2022/01/28 12:40:29;;;;;;;37.90;18.30;;;;;;;1.44;73.91;98720.48;4177;1318;3162292;-62
2022/01/28 12:43:45;;;;;;;31.50;16.70;;;;;;;1.03;75.34;98718.27;3429;1313;3095814;-64
2022/01/28 12:52:55;;;;;;;34.90;17.40;;;;;;;0.64;77.25;98700.59;3331;1317;3113261;-63
2022/01/28 13:02:33;;;;;;;31.40;18.60;;;;;;;1.75;74.44;98668.78;2713;1317;3152491;-65
2022/01/28 13:08:27;;;;;;;31.40;18.60;;;;;;;2.46;70.72;98657.94;3125;1317;3156742;-62
2022/01/28 13:59:36;;;;;;;;;;;;;;;;;;;;;
2022/01/28 14:03:00;;;;;;;48.10;22.70;;;;;;;1.36;77.68;98629.47;6362;1319;3078147;-64
2022/01/28 14:06:28;;;;;;;36.70;19.80;;;;;;;1.33;78.04;98629.77;6621;1312;3074893;-64
2022/01/28 14:09:59;;;;;;;39.60;19.90;;;;;;;1.28;78.52;98628.03;7173;1319;3060343;-65
2022/01/28 14:13:54;;;;;;;38.20;17.10;;;;;;;1.35;78.55;98625.73;7426;1314;3095832;-59
2022/01/28 14:16:23;;;;;;;39.00;16.70;;;;;;;1.16;79.72;98626.40;25217;1312;3053383;-58
2022/01/28 14:18:54;;;;;;;36.10;16.90;;;;;;;1.78;77.90;98622.42;25129;1312;3026509;-58
2022/01/28 14:21:23;;;;;;;43.50;17.10;;;;;;;1.92;76.85;98623.23;25193;1312;3029169;-57
2022/01/28 14:23:52;;;;;;;37.80;17.20;;;;;;;2.07;76.55;98615.42;25126;1312;3051707;-59
2022/01/28 14:26:21;;;;;;;41.40;18.90;;;;;;;1.64;77.83;98620.19;25207;1312;3027384;-56
2022/01/28 14:31:25;;;;;;;43.30;18.80;;;;;;;1.46;78.44;98604.44;25198;1311;3050524;-59
2022/01/28 14:33:54;;;;;;;45.70;19.90;;;;;;;1.33;79.16;98599.58;25188;1310;3026547;-58
2022/01/28 14:36:25;;;;;;;39.30;14.90;;;;;;;1.41;79.17;98592.02;25174;1312;3027016;-61
2022/01/28 14:38:54;;;;;;;38.00;17.60;;;;;;;1.85;78.16;98595.70;25110;1312;3026446;-58
2022/01/28 14:41:22;;;;;;;35.00;16.50;;;;;;;2.07;76.70;98592.78;25166;1312;3026459;-59
2022/01/28 14:43:51;;;;;;;53.30;19.30;;;;;;;2.00;76.85;98593.59;25201;1310;3048354;-60
2022/01/28 14:46:21;;;;;;;39.80;19.50;;;;;;;1.94;77.45;98601.91;25252;1310;3026364;-57
2022/01/28 14:48:49;;;;;;;43.00;19.30;;;;;;;1.77;77.48;98614.49;25217;1311;3029999;-59
2022/01/28 14:51:18;;;;;;;35.20;17.00;;;;;;;1.63;77.92;98621.06;25151;1312;3049502;-59
2022/01/28 14:53:47;;;;;;;37.50;17.50;;;;;;;1.54;78.20;98621.77;25244;1312;3026225;-58
2022/01/28 14:56:16;;;;;;;38.70;19.10;;;;;;;1.43;78.66;98617.66;25160;1312;3068389;-57
2022/01/28 14:58:46;;;;;;;33.70;15.60;;;;;;;1.55;78.90;98615.34;25226;1311;3026484;-60
2022/01/28 15:01:16;;;;;;;37.30;16.80;;;;;;;2.22;76.46;98607.56;25204;1311;3049580;-60
2022/01/28 15:03:46;;;;;;;44.20;18.40;;;;;;;2.38;75.27;98601.92;25187;1312;3028891;-57
2022/01/28 15:06:15;;;;;;;36.00;18.20;;;;;;;2.16;76.02;98596.94;25230;1312;3026313;-61
2022/01/28 15:08:44;;;;;;;41.80;18.80;;;;;;;2.28;75.42;98603.70;25126;1311;3053049;-59
2022/01/28 15:11:22;;;;;;;39.00;18.20;;;;;;;2.14;75.17;98605.27;25186;1312;3027463;-59
2022/01/28 15:13:51;;;;;;;30.40;14.70;;;;;;;1.81;76.79;98615.04;25162;1312;3049520;-57
2022/01/28 15:16:40;;;;;;;38.10;18.80;;;;;;;1.68;77.43;98618.48;25116;1312;3052360;-59
2022/01/28 15:19:09;;;;;;;40.60;19.60;;;;;;;1.53;78.25;98621.28;25247;1312;3026816;-58
2022/01/28 15:21:39;;;;;;;39.20;14.70;;;;;;;1.39;79.27;98614.36;25231;1312;3026988;-58
2022/01/28 15:24:07;;;;;;;37.70;16.50;;;;;;;1.90;77.83;98611.40;25147;1312;3026236;-59
2022/01/28 15:26:37;;;;;;;36.90;17.30;;;;;;;1.99;77.20;98599.66;25232;1312;3051913;-59
2022/01/28 15:29:10;;;;;;;41.20;18.60;;;;;;;1.88;77.31;98589.20;25145;1312;3026878;-59
2022/01/28 15:37:03;;;;;;;39.10;18.90;;;;;;;1.92;76.78;98610.83;25165;1312;3056800;-57
2022/01/28 15:39:35;;;;;;;47.80;19.90;;;;;;;1.65;77.78;98625.81;25117;1312;3026116;-59
2022/01/28 15:42:06;;;;;;;43.60;20.50;;;;;;;1.60;78.48;98609.79;25248;1312;3026424;-58
2022/01/28 15:44:37;;;;;;;35.30;15.90;;;;;;;1.42;79.27;98618.21;25276;1312;3027389;-59
2022/01/28 15:47:07;;;;;;;32.30;15.90;;;;;;;1.86;78.41;98626.59;25152;1312;3027150;-59
2022/01/28 15:49:36;;;;;;;46.40;20.90;;;;;;;2.26;76.66;98627.63;25156;1312;3051542;-57
2022/01/28 15:52:05;;;;;;;44.30;19.80;;;;;;;2.20;76.26;98618.17;25173;1312;3026462;-58
2022/01/28 15:54:34;;;;;;;40.30;18.60;;;;;;;2.24;76.13;98624.09;25155;1312;3026850;-60
2022/01/28 15:57:04;;;;;;;48.20;21.30;;;;;;;2.09;76.35;98624.64;25174;1312;3027076;-61
2022/01/28 15:59:33;;;;;;;45.10;20.90;;;;;;;1.54;78.31;98632.45;25181;1311;3050456;-58
2022/01/28 16:02:02;;;;;;;50.00;20.50;;;;;;;1.59;78.25;98625.04;25135;1312;3025975;-60
2022/01/28 16:04:31;;;;;;;40.20;19.30;;;;;;;1.59;78.32;98623.13;25231;1312;3052731;-58
2022/01/28 16:07:00;;;;;;;38.40;17.10;;;;;;;1.62;78.23;98618.34;25212;1311;3027012;-57
2022/01/28 16:09:31;;;;;;;42.40;18.60;;;;;;;2.15;76.92;98616.30;25194;1312;3026231;-58
2022/01/28 16:12:02;;;;;;;42.80;19.90;;;;;;;2.47;75.38;98613.83;25158;1310;3054714;-58
2022/01/28 16:14:35;;;;;;;46.90;20.80;;;;;;;2.43;75.40;98614.00;25254;1312;3027678;-59
2022/01/28 16:19:36;;;;;;;50.80;21.40;;;;;;;1.69;77.80;98629.31;25147;1310;3026562;-58
2022/01/28 16:22:07;;;;;;;47.90;21.40;;;;;;;1.54;78.64;98622.93;25185;1310;3026780;-57
2022/01/28 16:24:35;;;;;;;53.60;22.30;;;;;;;1.41;78.97;98618.59;25160;1312;3028027;-59
2022/01/28 16:27:05;;;;;;;56.00;25.10;;;;;;;1.36;78.81;98610.14;25122;1312;3026462;-59
2022/01/28 16:29:34;;;;;;;46.90;19.90;;;;;;;1.32;79.51;98609.27;25157;1312;3054679;-59
2022/01/28 16:32:06;;;;;;;47.60;21.90;;;;;;;1.67;78.46;98613.30;25211;1312;3026645;-59
2022/01/28 16:34:35;;;;;;;53.80;23.60;;;;;;;1.80;77.48;98619.93;25179;1310;3026629;-60
2022/01/28 16:37:18;;;;;;;53.40;23.50;;;;;;;2.03;77.00;98622.64;25146;1310;3051574;-59
2022/01/28 16:39:48;;;;;;;56.00;25.40;;;;;;;1.65;77.64;98627.72;25249;1309;3026780;-59
2022/01/28 16:42:36;;;;;;;50.10;24.50;;;;;;;1.41;78.53;98629.67;25184;1310;3056267;-60
2022/01/28 16:45:06;;;;;;;55.50;24.40;;;;;;;1.39;78.73;98626.81;25176;1309;3049906;-57
2022/01/28 16:47:35;;;;;;;45.60;20.00;;;;;;;1.19;79.22;98630.11;25144;1310;3026528;-59
2022/01/28 16:50:05;;;;;;;55.50;22.70;;;;;;;1.24;79.17;98625.42;25110;1312;3026074;-58
2022/01/28 16:52:34;;;;;;;59.40;25.20;;;;;;;1.60;78.60;98619.81;25148;1312;3048896;-58